Lilbourn, MO

11:07 AM CDT on September 02, 2014 (GMT -0500)
Dyersburg Municipal | Change Station
CLOSE
Current Station
Airport
Location: Dyersburg,
Elevation: 338 ft
Nearby Weather Stations

Elev 338 ft 36.00 °N, 89.41 °W | Updated 12 minutes ago

Scattered Clouds
Scattered Clouds
82 °F
Feels Like 86 °F
N
12
Wind Variable Wind from SW

Today
High -- | Low -- °F
--% Chance of Precip.
Yesterday
High -- | Low -- °F
Precip. -- in
6:30 AM 7:25 PM
First Quarter, 52% visible
Pressure 30.03 in
Visibility 10.0 miles
Clouds Scattered Clouds 1500 ft
Heat Index 86 °F
Dew Point 70 °F
Humidity 66%
Rainfall 0.00 in
Snow Depth Not available.
UV 6 out of 12
Pollen 8.70 out of 12
Air Quality Not available.
Flu Activity Not available.
METAR KDYR 021555Z 23010KT 10SM SCT015 28/21 A3003 RMK AO1

More Conditions Fewer Conditions

Pressure 30.03 in
Visibility 10.0 miles
Clouds Scattered Clouds 1500 ft
Heat Index 86 °F
Dew Point 70 °F
Humidity 66%
Rainfall 0.00 in
Snow Depth Not available.
UV 6 out of 12
Pollen 8.70 out of 12
Air Quality Not available.
Flu Activity Not available.
METAR KDYR 021555Z 23010KT 10SM SCT015 28/21 A3003 RMK AO1

More Conditions Fewer Conditions

10-Day Weather Forecast

Almanac

Astronomy

Sep. 02, 2014 Rise Set
Actual Time 6:30 AM CDT 7:25 PM CDT
Civil Twilight 6:04 AM CDT 7:51 PM CDT
Nautical Twilight 5:32 AM CDT 8:22 PM CDT
Astronomical Twilight 5:00 AM CDT 8:54 PM CDT
Moon 2:03 PM CDT No Moon Set
Length of Visible Light 13h 47m
Length of Day
12h 54m
Tomorrow will be 2m 14s shorter.
First Quarter, 52% of the Moon is Illuminated
Today
First Quarter
Sep 8
Full
Sep 15
Last Quarter
Sep 24
New
Oct 1
First Quarter

Today's Extremes

State Highs State Lows

Community

WunderPhotos

Upload Photos

1,749,706 photos uploaded!

Nearby

Snow Depth

Station Depth Elevation
No new snow has been reported.

Earthquake Activity

City Distance Mag. Time & Date
Tiptonville, Tennessee 14 miles 2.9 11:19 PM CDT
2014-08-31
Minimum magnitude displayed is 2.5.

Coastal Water Temperatures

Place Temperature
No Stations Reporting

Nearby Weather Stations